sensor_id;sensor_type;location;lat;lon;timestamp;P1;durP1;ratioP1;P2;durP2;ratioP2
43519;SDS011;46848;51.980;5.918;2023-05-07T00:01:07;6.63;;;3.53;;
43519;SDS011;46848;51.980;5.918;2023-05-07T00:03:35;7.03;;;4.07;;
43519;SDS011;46848;51.980;5.918;2023-05-07T00:06:01;8.05;;;4.10;;
43519;SDS011;46848;51.980;5.918;2023-05-07T00:08:27;5.93;;;4.03;;
43519;SDS011;46848;51.980;5.918;2023-05-07T00:10:52;5.78;;;3.85;;
43519;SDS011;46848;51.980;5.918;2023-05-07T00:13:18;5.75;;;4.30;;
43519;SDS011;46848;51.980;5.918;2023-05-07T00:15:43;10.35;;;4.50;;
43519;SDS011;46848;51.980;5.918;2023-05-07T00:18:09;8.10;;;4.47;;
43519;SDS011;46848;51.980;5.918;2023-05-07T00:20:35;5.90;;;3.72;;
43519;SDS011;46848;51.980;5.918;2023-05-07T00:23:01;5.53;;;3.42;;
43519;SDS011;46848;51.980;5.918;2023-05-07T00:25:26;6.97;;;4.43;;
43519;SDS011;46848;51.980;5.918;2023-05-07T00:27:52;5.40;;;3.20;;
43519;SDS011;46848;51.980;5.918;2023-05-07T00:30:18;6.05;;;3.60;;
43519;SDS011;46848;51.980;5.918;2023-05-07T00:32:43;5.55;;;3.67;;
43519;SDS011;46848;51.980;5.918;2023-05-07T00:35:10;6.25;;;3.60;;
43519;SDS011;46848;51.980;5.918;2023-05-07T00:37:36;4.78;;;3.35;;
43519;SDS011;46848;51.980;5.918;2023-05-07T00:40:02;5.55;;;3.72;;
43519;SDS011;46848;51.980;5.918;2023-05-07T00:42:29;5.53;;;3.75;;
43519;SDS011;46848;51.980;5.918;2023-05-07T00:44:57;7.22;;;3.95;;
43519;SDS011;46848;51.980;5.918;2023-05-07T00:47:23;5.53;;;3.75;;
43519;SDS011;46848;51.980;5.918;2023-05-07T00:49:50;6.03;;;3.90;;
43519;SDS011;46848;51.980;5.918;2023-05-07T00:52:16;4.90;;;3.97;;
43519;SDS011;46848;51.980;5.918;2023-05-07T00:54:44;6.47;;;3.92;;
43519;SDS011;46848;51.980;5.918;2023-05-07T00:57:10;4.60;;;3.25;;
43519;SDS011;46848;51.980;5.918;2023-05-07T00:59:36;7.15;;;4.03;;
43519;SDS011;46848;51.980;5.918;2023-05-07T01:02:02;6.82;;;3.92;;
43519;SDS011;46848;51.980;5.918;2023-05-07T01:04:27;5.28;;;4.15;;
43519;SDS011;46848;51.980;5.918;2023-05-07T01:06:56;6.82;;;3.55;;
43519;SDS011;46848;51.980;5.918;2023-05-07T01:09:24;5.63;;;4.30;;
43519;SDS011;46848;51.980;5.918;2023-05-07T01:11:50;6.15;;;4.45;;
43519;SDS011;46848;51.980;5.918;2023-05-07T01:14:17;7.72;;;4.60;;
43519;SDS011;46848;51.980;5.918;2023-05-07T01:16:43;6.30;;;4.72;;
43519;SDS011;46848;51.980;5.918;2023-05-07T01:19:09;8.15;;;4.68;;
43519;SDS011;46848;51.980;5.918;2023-05-07T01:21:38;7.63;;;5.35;;
43519;SDS011;46848;51.980;5.918;2023-05-07T01:24:12;9.18;;;4.70;;
43519;SDS011;46848;51.980;5.918;2023-05-07T01:26:38;7.05;;;4.70;;
43519;SDS011;46848;51.980;5.918;2023-05-07T01:29:04;7.18;;;5.13;;
43519;SDS011;46848;51.980;5.918;2023-05-07T01:31:30;8.43;;;4.50;;
43519;SDS011;46848;51.980;5.918;2023-05-07T01:33:59;6.97;;;4.47;;
43519;SDS011;46848;51.980;5.918;2023-05-07T01:36:26;6.45;;;4.55;;
43519;SDS011;46848;51.980;5.918;2023-05-07T01:38:54;7.85;;;5.10;;
43519;SDS011;46848;51.980;5.918;2023-05-07T01:41:23;6.78;;;5.00;;
43519;SDS011;46848;51.980;5.918;2023-05-07T01:43:50;8.35;;;4.28;;
43519;SDS011;46848;51.980;5.918;2023-05-07T01:46:17;6.63;;;4.63;;
43519;SDS011;46848;51.980;5.918;2023-05-07T01:48:43;6.03;;;4.30;;
43519;SDS011;46848;51.980;5.918;2023-05-07T01:51:11;9.05;;;4.78;;
43519;SDS011;46848;51.980;5.918;2023-05-07T01:53:37;7.03;;;4.95;;
43519;SDS011;46848;51.980;5.918;2023-05-07T01:56:03;5.95;;;4.47;;
43519;SDS011;46848;51.980;5.918;2023-05-07T01:58:29;9.05;;;4.60;;
43519;SDS011;46848;51.980;5.918;2023-05-07T02:00:56;6.65;;;4.72;;
43519;SDS011;46848;51.980;5.918;2023-05-07T02:03:21;8.63;;;5.50;;
43519;SDS011;46848;51.980;5.918;2023-05-07T02:05:47;7.88;;;4.90;;
43519;SDS011;46848;51.980;5.918;2023-05-07T02:08:12;8.55;;;5.35;;
43519;SDS011;46848;51.980;5.918;2023-05-07T02:10:38;8.10;;;5.22;;
43519;SDS011;46848;51.980;5.918;2023-05-07T02:13:03;6.38;;;4.68;;
43519;SDS011;46848;51.980;5.918;2023-05-07T02:15:29;6.93;;;5.03;;
43519;SDS011;46848;51.980;5.918;2023-05-07T02:18:05;6.63;;;4.78;;
43519;SDS011;46848;51.980;5.918;2023-05-07T02:20:32;7.53;;;5.47;;
43519;SDS011;46848;51.980;5.918;2023-05-07T02:22:58;7.13;;;5.45;;
43519;SDS011;46848;51.980;5.918;2023-05-07T02:25:24;8.13;;;5.68;;
43519;SDS011;46848;51.980;5.918;2023-05-07T02:27:49;7.85;;;5.78;;
43519;SDS011;46848;51.980;5.918;2023-05-07T02:30:15;7.70;;;5.38;;
43519;SDS011;46848;51.980;5.918;2023-05-07T02:32:41;6.95;;;5.38;;
43519;SDS011;46848;51.980;5.918;2023-05-07T02:35:06;8.68;;;5.63;;
43519;SDS011;46848;51.980;5.918;2023-05-07T02:37:32;6.05;;;4.82;;
43519;SDS011;46848;51.980;5.918;2023-05-07T02:39:58;8.02;;;5.25;;
43519;SDS011;46848;51.980;5.918;2023-05-07T02:42:23;6.85;;;5.32;;
43519;SDS011;46848;51.980;5.918;2023-05-07T02:44:49;8.25;;;5.53;;
43519;SDS011;46848;51.980;5.918;2023-05-07T02:47:15;8.07;;;5.38;;
43519;SDS011;46848;51.980;5.918;2023-05-07T02:49:40;7.50;;;6.10;;
43519;SDS011;46848;51.980;5.918;2023-05-07T02:52:06;6.90;;;5.80;;
43519;SDS011;46848;51.980;5.918;2023-05-07T02:54:32;9.20;;;6.25;;
43519;SDS011;46848;51.980;5.918;2023-05-07T02:56:57;9.07;;;5.88;;
43519;SDS011;46848;51.980;5.918;2023-05-07T02:59:23;7.63;;;5.60;;
43519;SDS011;46848;51.980;5.918;2023-05-07T03:01:51;9.13;;;6.22;;
43519;SDS011;46848;51.980;5.918;2023-05-07T03:04:16;7.50;;;5.43;;
43519;SDS011;46848;51.980;5.918;2023-05-07T03:06:42;7.88;;;5.32;;
43519;SDS011;46848;51.980;5.918;2023-05-07T03:09:07;6.95;;;5.25;;
43519;SDS011;46848;51.980;5.918;2023-05-07T03:11:33;8.32;;;5.65;;
43519;SDS011;46848;51.980;5.918;2023-05-07T03:14:00;9.20;;;5.97;;
43519;SDS011;46848;51.980;5.918;2023-05-07T03:16:26;9.77;;;6.60;;
43519;SDS011;46848;51.980;5.918;2023-05-07T03:18:52;7.80;;;5.68;;
43519;SDS011;46848;51.980;5.918;2023-05-07T03:21:17;10.50;;;6.90;;
43519;SDS011;46848;51.980;5.918;2023-05-07T03:23:43;9.15;;;6.20;;
43519;SDS011;46848;51.980;5.918;2023-05-07T03:26:08;10.60;;;7.50;;
43519;SDS011;46848;51.980;5.918;2023-05-07T03:28:34;9.13;;;7.25;;
43519;SDS011;46848;51.980;5.918;2023-05-07T03:31:00;10.70;;;6.78;;
43519;SDS011;46848;51.980;5.918;2023-05-07T03:33:25;8.82;;;7.22;;
43519;SDS011;46848;51.980;5.918;2023-05-07T03:35:52;10.07;;;7.90;;
43519;SDS011;46848;51.980;5.918;2023-05-07T03:38:18;10.02;;;7.40;;
43519;SDS011;46848;51.980;5.918;2023-05-07T03:40:43;10.93;;;7.80;;
43519;SDS011;46848;51.980;5.918;2023-05-07T03:43:09;11.23;;;7.50;;
43519;SDS011;46848;51.980;5.918;2023-05-07T03:45:35;9.85;;;7.65;;
43519;SDS011;46848;51.980;5.918;2023-05-07T03:48:00;11.05;;;7.10;;
43519;SDS011;46848;51.980;5.918;2023-05-07T03:50:26;10.80;;;7.50;;
43519;SDS011;46848;51.980;5.918;2023-05-07T03:52:52;9.45;;;6.35;;
43519;SDS011;46848;51.980;5.918;2023-05-07T03:55:17;9.77;;;7.28;;
43519;SDS011;46848;51.980;5.918;2023-05-07T03:57:43;9.25;;;7.32;;
43519;SDS011;46848;51.980;5.918;2023-05-07T04:00:09;9.95;;;7.97;;
43519;SDS011;46848;51.980;5.918;2023-05-07T04:02:35;11.00;;;8.02;;
43519;SDS011;46848;51.980;5.918;2023-05-07T04:05:01;10.52;;;8.23;;
43519;SDS011;46848;51.980;5.918;2023-05-07T04:07:26;14.30;;;9.15;;
43519;SDS011;46848;51.980;5.918;2023-05-07T04:09:52;12.13;;;9.40;;
43519;SDS011;46848;51.980;5.918;2023-05-07T04:12:17;14.52;;;10.13;;
43519;SDS011;46848;51.980;5.918;2023-05-07T04:14:43;11.77;;;8.38;;
43519;SDS011;46848;51.980;5.918;2023-05-07T04:17:09;12.25;;;8.98;;
43519;SDS011;46848;51.980;5.918;2023-05-07T04:19:35;11.35;;;9.60;;
43519;SDS011;46848;51.980;5.918;2023-05-07T04:22:01;13.90;;;11.07;;
43519;SDS011;46848;51.980;5.918;2023-05-07T04:24:27;12.00;;;9.57;;
43519;SDS011;46848;51.980;5.918;2023-05-07T04:26:55;10.07;;;8.93;;
43519;SDS011;46848;51.980;5.918;2023-05-07T04:29:21;13.02;;;9.48;;
43519;SDS011;46848;51.980;5.918;2023-05-07T04:31:47;10.73;;;8.95;;
43519;SDS011;46848;51.980;5.918;2023-05-07T04:34:12;13.20;;;11.07;;
43519;SDS011;46848;51.980;5.918;2023-05-07T04:36:39;11.45;;;9.43;;
43519;SDS011;46848;51.980;5.918;2023-05-07T04:39:04;12.05;;;9.90;;
43519;SDS011;46848;51.980;5.918;2023-05-07T04:41:30;10.68;;;8.98;;
43519;SDS011;46848;51.980;5.918;2023-05-07T04:43:56;12.15;;;10.45;;
43519;SDS011;46848;51.980;5.918;2023-05-07T04:46:23;12.85;;;10.88;;
43519;SDS011;46848;51.980;5.918;2023-05-07T04:48:49;11.93;;;10.60;;
43519;SDS011;46848;51.980;5.918;2023-05-07T04:51:15;12.68;;;9.95;;
43519;SDS011;46848;51.980;5.918;2023-05-07T04:53:41;13.98;;;11.80;;
43519;SDS011;46848;51.980;5.918;2023-05-07T04:56:08;15.90;;;13.25;;
43519;SDS011;46848;51.980;5.918;2023-05-07T04:58:33;16.25;;;12.50;;
43519;SDS011;46848;51.980;5.918;2023-05-07T05:00:59;13.40;;;12.00;;
43519;SDS011;46848;51.980;5.918;2023-05-07T05:03:25;14.27;;;12.27;;
43519;SDS011;46848;51.980;5.918;2023-05-07T05:05:51;14.52;;;13.02;;
43519;SDS011;46848;51.980;5.918;2023-05-07T05:08:17;13.68;;;12.18;;
43519;SDS011;46848;51.980;5.918;2023-05-07T05:10:43;11.07;;;9.98;;
43519;SDS011;46848;51.980;5.918;2023-05-07T05:13:09;12.23;;;10.90;;
43519;SDS011;46848;51.980;5.918;2023-05-07T05:15:37;10.95;;;9.82;;
43519;SDS011;46848;51.980;5.918;2023-05-07T05:18:03;11.48;;;10.38;;
43519;SDS011;46848;51.980;5.918;2023-05-07T05:20:29;13.48;;;11.77;;
43519;SDS011;46848;51.980;5.918;2023-05-07T05:22:55;13.10;;;11.70;;
43519;SDS011;46848;51.980;5.918;2023-05-07T05:25:20;12.00;;;10.55;;
43519;SDS011;46848;51.980;5.918;2023-05-07T05:27:46;13.07;;;9.88;;
43519;SDS011;46848;51.980;5.918;2023-05-07T05:30:12;13.32;;;11.93;;
43519;SDS011;46848;51.980;5.918;2023-05-07T05:32:38;13.73;;;11.43;;
43519;SDS011;46848;51.980;5.918;2023-05-07T05:35:03;14.15;;;12.65;;
43519;SDS011;46848;51.980;5.918;2023-05-07T05:37:29;11.82;;;10.60;;
43519;SDS011;46848;51.980;5.918;2023-05-07T05:39:56;12.48;;;11.18;;
43519;SDS011;46848;51.980;5.918;2023-05-07T05:42:22;14.75;;;11.60;;
43519;SDS011;46848;51.980;5.918;2023-05-07T05:44:48;14.48;;;12.88;;
43519;SDS011;46848;51.980;5.918;2023-05-07T05:47:13;13.48;;;10.77;;
43519;SDS011;46848;51.980;5.918;2023-05-07T05:49:39;14.27;;;10.60;;
43519;SDS011;46848;51.980;5.918;2023-05-07T05:52:04;12.48;;;9.45;;
43519;SDS011;46848;51.980;5.918;2023-05-07T05:54:30;11.98;;;10.60;;
43519;SDS011;46848;51.980;5.918;2023-05-07T05:56:56;10.32;;;9.13;;
43519;SDS011;46848;51.980;5.918;2023-05-07T05:59:22;12.55;;;9.90;;
43519;SDS011;46848;51.980;5.918;2023-05-07T06:01:47;14.25;;;10.63;;
43519;SDS011;46848;51.980;5.918;2023-05-07T06:04:13;12.43;;;10.13;;
43519;SDS011;46848;51.980;5.918;2023-05-07T06:06:38;13.45;;;10.60;;
43519;SDS011;46848;51.980;5.918;2023-05-07T06:09:04;14.90;;;12.25;;
43519;SDS011;46848;51.980;5.918;2023-05-07T06:11:31;13.50;;;12.10;;
43519;SDS011;46848;51.980;5.918;2023-05-07T06:13:57;14.25;;;12.82;;
43519;SDS011;46848;51.980;5.918;2023-05-07T06:16:22;15.10;;;12.68;;
43519;SDS011;46848;51.980;5.918;2023-05-07T06:18:49;13.90;;;11.82;;
43519;SDS011;46848;51.980;5.918;2023-05-07T06:21:15;13.77;;;11.73;;
43519;SDS011;46848;51.980;5.918;2023-05-07T06:23:41;12.88;;;10.00;;
43519;SDS011;46848;51.980;5.918;2023-05-07T06:26:06;12.63;;;11.32;;
43519;SDS011;46848;51.980;5.918;2023-05-07T06:28:32;14.68;;;12.05;;
43519;SDS011;46848;51.980;5.918;2023-05-07T06:31:16;14.60;;;12.40;;
43519;SDS011;46848;51.980;5.918;2023-05-07T06:33:47;14.20;;;12.70;;
43519;SDS011;46848;51.980;5.918;2023-05-07T06:36:13;14.25;;;11.30;;
43519;SDS011;46848;51.980;5.918;2023-05-07T06:38:39;15.55;;;12.77;;
43519;SDS011;46848;51.980;5.918;2023-05-07T06:41:05;12.90;;;11.60;;
43519;SDS011;46848;51.980;5.918;2023-05-07T06:43:31;17.00;;;14.82;;
43519;SDS011;46848;51.980;5.918;2023-05-07T06:45:57;19.90;;;14.85;;
43519;SDS011;46848;51.980;5.918;2023-05-07T06:48:23;15.90;;;14.18;;
43519;SDS011;46848;51.980;5.918;2023-05-07T06:50:48;17.83;;;14.50;;
43519;SDS011;46848;51.980;5.918;2023-05-07T06:53:14;15.18;;;13.57;;
43519;SDS011;46848;51.980;5.918;2023-05-07T06:55:40;15.40;;;13.75;;
43519;SDS011;46848;51.980;5.918;2023-05-07T06:58:06;15.63;;;13.88;;
43519;SDS011;46848;51.980;5.918;2023-05-07T07:00:32;16.00;;;14.27;;
43519;SDS011;46848;51.980;5.918;2023-05-07T07:02:58;18.10;;;14.98;;
43519;SDS011;46848;51.980;5.918;2023-05-07T07:05:24;16.20;;;14.60;;
43519;SDS011;46848;51.980;5.918;2023-05-07T07:07:50;21.33;;;16.92;;
43519;SDS011;46848;51.980;5.918;2023-05-07T07:10:18;17.17;;;15.13;;
43519;SDS011;46848;51.980;5.918;2023-05-07T07:12:44;17.55;;;15.63;;
43519;SDS011;46848;51.980;5.918;2023-05-07T07:15:10;18.58;;;15.65;;
43519;SDS011;46848;51.980;5.918;2023-05-07T07:17:36;18.77;;;16.05;;
43519;SDS011;46848;51.980;5.918;2023-05-07T07:20:02;19.08;;;17.08;;
43519;SDS011;46848;51.980;5.918;2023-05-07T07:22:28;17.00;;;14.88;;
43519;SDS011;46848;51.980;5.918;2023-05-07T07:24:54;16.23;;;14.50;;
43519;SDS011;46848;51.980;5.918;2023-05-07T07:27:19;19.80;;;15.57;;
43519;SDS011;46848;51.980;5.918;2023-05-07T07:29:45;17.15;;;14.85;;
43519;SDS011;46848;51.980;5.918;2023-05-07T07:32:11;19.40;;;15.10;;
43519;SDS011;46848;51.980;5.918;2023-05-07T07:34:36;18.48;;;15.43;;
43519;SDS011;46848;51.980;5.918;2023-05-07T07:37:02;15.32;;;13.27;;
43519;SDS011;46848;51.980;5.918;2023-05-07T07:39:30;18.38;;;14.15;;
43519;SDS011;46848;51.980;5.918;2023-05-07T07:41:59;17.25;;;14.52;;
43519;SDS011;46848;51.980;5.918;2023-05-07T07:44:25;14.77;;;13.18;;
43519;SDS011;46848;51.980;5.918;2023-05-07T07:46:52;19.13;;;14.52;;
43519;SDS011;46848;51.980;5.918;2023-05-07T07:49:18;23.80;;;16.92;;
43519;SDS011;46848;51.980;5.918;2023-05-07T07:51:43;18.35;;;15.07;;
43519;SDS011;46848;51.980;5.918;2023-05-07T07:54:09;17.75;;;15.52;;
43519;SDS011;46848;51.980;5.918;2023-05-07T07:56:35;20.20;;;17.10;;
43519;SDS011;46848;51.980;5.918;2023-05-07T07:59:00;15.75;;;14.07;;
43519;SDS011;46848;51.980;5.918;2023-05-07T08:01:28;17.90;;;14.20;;
43519;SDS011;46848;51.980;5.918;2023-05-07T08:03:55;17.33;;;14.40;;
43519;SDS011;46848;51.980;5.918;2023-05-07T08:06:20;16.10;;;12.95;;
43519;SDS011;46848;51.980;5.918;2023-05-07T08:08:46;21.45;;;16.10;;
43519;SDS011;46848;51.980;5.918;2023-05-07T08:11:11;18.13;;;15.85;;
43519;SDS011;46848;51.980;5.918;2023-05-07T08:13:37;15.65;;;13.45;;
43519;SDS011;46848;51.980;5.918;2023-05-07T08:16:03;15.80;;;13.90;;
43519;SDS011;46848;51.980;5.918;2023-05-07T08:18:30;17.63;;;14.77;;
43519;SDS011;46848;51.980;5.918;2023-05-07T08:20:55;17.40;;;14.93;;
43519;SDS011;46848;51.980;5.918;2023-05-07T08:23:21;17.27;;;15.18;;
43519;SDS011;46848;51.980;5.918;2023-05-07T08:25:47;18.38;;;15.65;;
43519;SDS011;46848;51.980;5.918;2023-05-07T08:28:14;16.42;;;13.57;;
43519;SDS011;46848;51.980;5.918;2023-05-07T08:30:39;17.33;;;15.35;;
43519;SDS011;46848;51.980;5.918;2023-05-07T08:33:05;17.63;;;14.60;;
43519;SDS011;46848;51.980;5.918;2023-05-07T08:35:31;14.95;;;13.10;;
43519;SDS011;46848;51.980;5.918;2023-05-07T08:37:57;18.15;;;15.15;;
43519;SDS011;46848;51.980;5.918;2023-05-07T08:40:24;17.73;;;14.30;;
43519;SDS011;46848;51.980;5.918;2023-05-07T08:42:51;18.17;;;14.02;;
43519;SDS011;46848;51.980;5.918;2023-05-07T08:45:18;13.85;;;11.75;;
43519;SDS011;46848;51.980;5.918;2023-05-07T08:47:52;19.20;;;14.48;;
43519;SDS011;46848;51.980;5.918;2023-05-07T08:50:23;13.80;;;12.30;;
43519;SDS011;46848;51.980;5.918;2023-05-07T08:52:49;17.88;;;13.77;;
43519;SDS011;46848;51.980;5.918;2023-05-07T08:55:15;18.13;;;13.27;;
43519;SDS011;46848;51.980;5.918;2023-05-07T08:57:40;14.68;;;12.77;;
43519;SDS011;46848;51.980;5.918;2023-05-07T09:00:06;16.95;;;14.25;;
43519;SDS011;46848;51.980;5.918;2023-05-07T09:02:33;17.10;;;14.35;;
43519;SDS011;46848;51.980;5.918;2023-05-07T09:05:00;17.42;;;14.50;;
43519;SDS011;46848;51.980;5.918;2023-05-07T09:07:26;15.18;;;13.00;;
43519;SDS011;46848;51.980;5.918;2023-05-07T09:09:52;17.70;;;14.50;;
43519;SDS011;46848;51.980;5.918;2023-05-07T09:12:19;13.05;;;11.65;;
43519;SDS011;46848;51.980;5.918;2023-05-07T09:14:45;13.95;;;11.55;;
43519;SDS011;46848;51.980;5.918;2023-05-07T09:17:13;15.25;;;12.65;;
43519;SDS011;46848;51.980;5.918;2023-05-07T09:19:40;16.10;;;12.05;;
43519;SDS011;46848;51.980;5.918;2023-05-07T09:22:05;15.07;;;11.02;;
43519;SDS011;46848;51.980;5.918;2023-05-07T09:24:34;13.75;;;11.23;;
43519;SDS011;46848;51.980;5.918;2023-05-07T09:27:02;17.00;;;13.30;;
43519;SDS011;46848;51.980;5.918;2023-05-07T09:29:31;15.63;;;11.73;;
43519;SDS011;46848;51.980;5.918;2023-05-07T09:32:06;17.00;;;13.20;;
43519;SDS011;46848;51.980;5.918;2023-05-07T09:34:32;14.15;;;10.88;;
43519;SDS011;46848;51.980;5.918;2023-05-07T09:36:59;17.40;;;11.27;;
43519;SDS011;46848;51.980;5.918;2023-05-07T09:39:26;14.57;;;10.85;;
43519;SDS011;46848;51.980;5.918;2023-05-07T09:42:03;14.65;;;10.48;;
43519;SDS011;46848;51.980;5.918;2023-05-07T09:44:29;15.05;;;12.30;;
43519;SDS011;46848;51.980;5.918;2023-05-07T09:46:56;14.23;;;11.98;;
43519;SDS011;46848;51.980;5.918;2023-05-07T09:49:25;12.60;;;10.40;;
43519;SDS011;46848;51.980;5.918;2023-05-07T09:51:55;12.45;;;10.23;;
43519;SDS011;46848;51.980;5.918;2023-05-07T09:54:21;12.70;;;9.93;;
43519;SDS011;46848;51.980;5.918;2023-05-07T09:56:48;13.40;;;10.27;;
43519;SDS011;46848;51.980;5.918;2023-05-07T09:59:15;10.10;;;8.38;;
43519;SDS011;46848;51.980;5.918;2023-05-07T10:01:41;9.82;;;8.77;;
43519;SDS011;46848;51.980;5.918;2023-05-07T10:04:08;12.30;;;9.93;;
43519;SDS011;46848;51.980;5.918;2023-05-07T10:06:36;12.05;;;9.55;;
43519;SDS011;46848;51.980;5.918;2023-05-07T10:09:03;12.10;;;9.57;;
43519;SDS011;46848;51.980;5.918;2023-05-07T10:11:33;11.00;;;9.02;;
43519;SDS011;46848;51.980;5.918;2023-05-07T10:14:00;11.20;;;9.27;;
43519;SDS011;46848;51.980;5.918;2023-05-07T10:16:34;13.40;;;9.43;;
43519;SDS011;46848;51.980;5.918;2023-05-07T10:19:04;9.57;;;8.55;;
43519;SDS011;46848;51.980;5.918;2023-05-07T10:21:32;10.13;;;8.77;;
43519;SDS011;46848;51.980;5.918;2023-05-07T10:24:05;13.93;;;10.70;;
43519;SDS011;46848;51.980;5.918;2023-05-07T10:26:42;12.15;;;9.15;;
43519;SDS011;46848;51.980;5.918;2023-05-07T10:33:05;13.73;;;9.30;;
43519;SDS011;46848;51.980;5.918;2023-05-07T10:35:14;11.25;;;8.43;;
43519;SDS011;46848;51.980;5.918;2023-05-07T10:37:44;10.32;;;8.52;;
43519;SDS011;46848;51.980;5.918;2023-05-07T10:40:11;10.70;;;8.50;;
43519;SDS011;46848;51.980;5.918;2023-05-07T10:42:37;11.95;;;9.98;;
43519;SDS011;46848;51.980;5.918;2023-05-07T10:45:12;11.13;;;9.38;;
43519;SDS011;46848;51.980;5.918;2023-05-07T10:48:05;10.10;;;8.23;;
43519;SDS011;46848;51.980;5.918;2023-05-07T10:50:35;9.48;;;7.75;;
43519;SDS011;46848;51.980;5.918;2023-05-07T10:55:46;9.68;;;8.68;;
43519;SDS011;46848;51.980;5.918;2023-05-07T10:58:23;10.82;;;7.75;;
43519;SDS011;46848;51.980;5.918;2023-05-07T11:00:56;11.38;;;8.27;;
43519;SDS011;46848;51.980;5.918;2023-05-07T11:03:24;10.30;;;8.05;;
43519;SDS011;46848;51.980;5.918;2023-05-07T11:17:20;8.88;;;7.40;;
43519;SDS011;46848;51.980;5.918;2023-05-07T11:19:52;10.20;;;7.75;;
43519;SDS011;46848;51.980;5.918;2023-05-07T11:25:00;10.45;;;8.05;;
43519;SDS011;46848;51.980;5.918;2023-05-07T11:27:26;8.38;;;6.65;;
43519;SDS011;46848;51.980;5.918;2023-05-07T11:29:52;10.85;;;8.05;;
43519;SDS011;46848;51.980;5.918;2023-05-07T11:32:28;10.63;;;8.48;;
43519;SDS011;46848;51.980;5.918;2023-05-07T11:34:55;9.27;;;7.72;;
43519;SDS011;46848;51.980;5.918;2023-05-07T11:37:23;8.93;;;7.75;;
43519;SDS011;46848;51.980;5.918;2023-05-07T11:39:49;11.20;;;8.80;;
43519;SDS011;46848;51.980;5.918;2023-05-07T11:42:30;11.18;;;9.05;;
43519;SDS011;46848;51.980;5.918;2023-05-07T11:45:02;11.07;;;8.05;;
43519;SDS011;46848;51.980;5.918;2023-05-07T11:47:32;9.85;;;8.57;;
43519;SDS011;46848;51.980;5.918;2023-05-07T11:50:03;10.60;;;7.32;;
43519;SDS011;46848;51.980;5.918;2023-05-07T11:52:30;8.27;;;7.25;;
43519;SDS011;46848;51.980;5.918;2023-05-07T11:54:56;10.75;;;8.40;;
43519;SDS011;46848;51.980;5.918;2023-05-07T11:57:24;11.75;;;9.32;;
43519;SDS011;46848;51.980;5.918;2023-05-07T11:59:54;8.82;;;7.22;;
43519;SDS011;46848;51.980;5.918;2023-05-07T12:02:23;8.90;;;6.78;;
43519;SDS011;46848;51.980;5.918;2023-05-07T12:04:50;11.77;;;8.07;;
43519;SDS011;46848;51.980;5.918;2023-05-07T12:07:17;9.73;;;7.30;;
43519;SDS011;46848;51.980;5.918;2023-05-07T12:09:43;10.82;;;8.43;;
43519;SDS011;46848;51.980;5.918;2023-05-07T12:12:10;12.02;;;9.82;;
43519;SDS011;46848;51.980;5.918;2023-05-07T12:14:39;9.18;;;6.70;;
43519;SDS011;46848;51.980;5.918;2023-05-07T12:17:05;8.65;;;6.60;;
43519;SDS011;46848;51.980;5.918;2023-05-07T12:19:34;10.07;;;7.05;;
43519;SDS011;46848;51.980;5.918;2023-05-07T12:22:04;8.27;;;6.88;;
43519;SDS011;46848;51.980;5.918;2023-05-07T12:24:45;9.00;;;7.53;;
43519;SDS011;46848;51.980;5.918;2023-05-07T12:27:11;10.25;;;7.32;;
43519;SDS011;46848;51.980;5.918;2023-05-07T12:29:37;8.77;;;6.40;;
43519;SDS011;46848;51.980;5.918;2023-05-07T12:32:05;8.75;;;6.80;;
43519;SDS011;46848;51.980;5.918;2023-05-07T12:34:31;7.85;;;6.35;;
43519;SDS011;46848;51.980;5.918;2023-05-07T12:36:57;8.48;;;6.50;;
43519;SDS011;46848;51.980;5.918;2023-05-07T12:39:27;7.55;;;5.32;;
43519;SDS011;46848;51.980;5.918;2023-05-07T12:41:56;9.68;;;6.30;;
43519;SDS011;46848;51.980;5.918;2023-05-07T12:44:30;9.57;;;7.15;;
43519;SDS011;46848;51.980;5.918;2023-05-07T12:46:57;20.60;;;14.82;;
43519;SDS011;46848;51.980;5.918;2023-05-07T12:49:23;11.50;;;9.35;;
43519;SDS011;46848;51.980;5.918;2023-05-07T12:51:50;12.80;;;8.02;;
43519;SDS011;46848;51.980;5.918;2023-05-07T12:57:05;15.30;;;8.95;;
43519;SDS011;46848;51.980;5.918;2023-05-07T12:59:40;8.90;;;7.25;;
43519;SDS011;46848;51.980;5.918;2023-05-07T13:02:06;11.07;;;8.18;;
43519;SDS011;46848;51.980;5.918;2023-05-07T13:04:33;9.82;;;7.03;;
43519;SDS011;46848;51.980;5.918;2023-05-07T13:06:59;9.18;;;6.97;;
43519;SDS011;46848;51.980;5.918;2023-05-07T13:09:25;10.23;;;6.75;;
43519;SDS011;46848;51.980;5.918;2023-05-07T13:11:51;8.52;;;6.53;;
43519;SDS011;46848;51.980;5.918;2023-05-07T13:14:16;9.35;;;5.85;;
43519;SDS011;46848;51.980;5.918;2023-05-07T13:16:42;8.43;;;5.97;;
43519;SDS011;46848;51.980;5.918;2023-05-07T13:19:08;8.15;;;5.68;;
43519;SDS011;46848;51.980;5.918;2023-05-07T13:21:33;8.52;;;6.30;;
43519;SDS011;46848;51.980;5.918;2023-05-07T13:23:59;8.27;;;6.32;;
43519;SDS011;46848;51.980;5.918;2023-05-07T13:26:25;7.72;;;5.28;;
43519;SDS011;46848;51.980;5.918;2023-05-07T13:28:51;8.65;;;6.32;;
43519;SDS011;46848;51.980;5.918;2023-05-07T13:31:17;9.48;;;6.82;;
43519;SDS011;46848;51.980;5.918;2023-05-07T13:33:43;8.00;;;6.38;;
43519;SDS011;46848;51.980;5.918;2023-05-07T13:36:08;7.15;;;5.68;;
43519;SDS011;46848;51.980;5.918;2023-05-07T13:38:34;10.00;;;5.72;;
43519;SDS011;46848;51.980;5.918;2023-05-07T13:41:00;9.13;;;6.18;;
43519;SDS011;46848;51.980;5.918;2023-05-07T13:43:26;7.55;;;5.07;;
43519;SDS011;46848;51.980;5.918;2023-05-07T13:45:51;6.40;;;4.63;;
43519;SDS011;46848;51.980;5.918;2023-05-07T13:48:17;9.13;;;5.97;;
43519;SDS011;46848;51.980;5.918;2023-05-07T13:50:42;7.38;;;5.93;;
43519;SDS011;46848;51.980;5.918;2023-05-07T13:53:08;7.25;;;5.50;;
43519;SDS011;46848;51.980;5.918;2023-05-07T13:55:34;8.43;;;6.35;;
43519;SDS011;46848;51.980;5.918;2023-05-07T13:58:00;7.30;;;4.95;;
43519;SDS011;46848;51.980;5.918;2023-05-07T14:00:27;5.60;;;4.00;;
43519;SDS011;46848;51.980;5.918;2023-05-07T14:02:53;6.05;;;3.70;;
43519;SDS011;46848;51.980;5.918;2023-05-07T14:05:20;9.32;;;4.22;;
43519;SDS011;46848;51.980;5.918;2023-05-07T14:07:45;6.25;;;4.60;;
43519;SDS011;46848;51.980;5.918;2023-05-07T14:10:12;6.45;;;4.78;;
43519;SDS011;46848;51.980;5.918;2023-05-07T14:12:38;9.30;;;5.30;;
43519;SDS011;46848;51.980;5.918;2023-05-07T14:15:03;5.82;;;4.55;;
43519;SDS011;46848;51.980;5.918;2023-05-07T14:17:29;7.18;;;4.78;;
43519;SDS011;46848;51.980;5.918;2023-05-07T14:19:55;5.68;;;4.03;;
43519;SDS011;46848;51.980;5.918;2023-05-07T14:22:21;5.82;;;4.28;;
43519;SDS011;46848;51.980;5.918;2023-05-07T14:24:47;7.28;;;5.22;;
43519;SDS011;46848;51.980;5.918;2023-05-07T14:27:14;6.50;;;5.35;;
43519;SDS011;46848;51.980;5.918;2023-05-07T14:29:40;7.97;;;5.75;;
43519;SDS011;46848;51.980;5.918;2023-05-07T14:32:07;9.90;;;6.60;;
43519;SDS011;46848;51.980;5.918;2023-05-07T14:34:33;10.10;;;6.85;;
43519;SDS011;46848;51.980;5.918;2023-05-07T14:36:59;8.45;;;6.40;;
43519;SDS011;46848;51.980;5.918;2023-05-07T14:39:26;10.25;;;6.97;;
43519;SDS011;46848;51.980;5.918;2023-05-07T14:41:52;8.27;;;5.85;;
43519;SDS011;46848;51.980;5.918;2023-05-07T14:44:19;8.15;;;5.53;;
43519;SDS011;46848;51.980;5.918;2023-05-07T14:46:45;6.35;;;5.10;;
43519;SDS011;46848;51.980;5.918;2023-05-07T14:49:11;7.65;;;5.85;;
43519;SDS011;46848;51.980;5.918;2023-05-07T14:51:42;7.80;;;5.10;;
43519;SDS011;46848;51.980;5.918;2023-05-07T14:54:09;7.47;;;3.70;;
43519;SDS011;46848;51.980;5.918;2023-05-07T14:56:35;5.88;;;3.03;;